sensor_id;sensor_type;location;lat;lon;timestamp;pressure;altitude;pressure_sealevel;temperature;humidity
59106;BME280;44891;50.204;8.132;2023-05-14T00:01:52;98445.66;;;9.07;96.31
59106;BME280;44891;50.204;8.132;2023-05-14T00:05:53;98438.03;;;9.05;94.62
59106;BME280;44891;50.204;8.132;2023-05-14T00:09:55;98437.13;;;9.11;94.45
59106;BME280;44891;50.204;8.132;2023-05-14T00:13:57;98433.53;;;8.94;95.43
59106;BME280;44891;50.204;8.132;2023-05-14T00:18:00;98435.03;;;9.02;95.00
59106;BME280;44891;50.204;8.132;2023-05-14T00:22:02;98436.47;;;8.97;94.48
59106;BME280;44891;50.204;8.132;2023-05-14T00:26:04;98435.53;;;8.80;95.41
59106;BME280;44891;50.204;8.132;2023-05-14T00:30:06;98436.00;;;8.89;96.13
59106;BME280;44891;50.204;8.132;2023-05-14T00:34:10;98424.66;;;8.47;99.48
59106;BME280;44891;50.204;8.132;2023-05-14T00:38:11;98418.50;;;8.34;100.00
59106;BME280;44891;50.204;8.132;2023-05-14T00:42:17;98417.28;;;8.55;100.00
59106;BME280;44891;50.204;8.132;2023-05-14T00:46:19;98417.59;;;8.65;98.77
59106;BME280;44891;50.204;8.132;2023-05-14T00:50:22;98411.53;;;8.28;99.14
59106;BME280;44891;50.204;8.132;2023-05-14T00:54:24;98399.44;;;7.90;100.00
59106;BME280;44891;50.204;8.132;2023-05-14T00:58:26;98409.06;;;8.15;100.00
59106;BME280;44891;50.204;8.132;2023-05-14T01:02:28;98404.94;;;8.44;100.00
59106;BME280;44891;50.204;8.132;2023-05-14T01:06:33;98408.00;;;8.41;98.25
59106;BME280;44891;50.204;8.132;2023-05-14T01:10:41;98406.06;;;8.30;99.36
59106;BME280;44891;50.204;8.132;2023-05-14T01:14:49;98402.19;;;8.39;99.94
59106;BME280;44891;50.204;8.132;2023-05-14T01:18:54;98403.03;;;8.33;98.70
59106;BME280;44891;50.204;8.132;2023-05-14T01:22:58;98403.03;;;8.33;98.76
59106;BME280;44891;50.204;8.132;2023-05-14T01:27:02;98405.06;;;8.49;96.93
59106;BME280;44891;50.204;8.132;2023-05-14T01:31:07;98397.31;;;8.42;95.02
59106;BME280;44891;50.204;8.132;2023-05-14T01:35:12;98397.75;;;8.39;95.27
59106;BME280;44891;50.204;8.132;2023-05-14T01:39:16;98397.81;;;8.33;95.74
59106;BME280;44891;50.204;8.132;2023-05-14T01:43:20;98397.72;;;8.21;95.42
59106;BME280;44891;50.204;8.132;2023-05-14T01:47:21;98389.31;;;8.19;94.64
59106;BME280;44891;50.204;8.132;2023-05-14T01:51:23;98395.59;;;8.11;96.24
59106;BME280;44891;50.204;8.132;2023-05-14T01:55:26;98383.66;;;7.79;100.00
59106;BME280;44891;50.204;8.132;2023-05-14T01:59:28;98392.25;;;8.04;99.40
59106;BME280;44891;50.204;8.132;2023-05-14T02:03:30;98390.22;;;8.25;96.70
59106;BME280;44891;50.204;8.132;2023-05-14T02:07:32;98394.00;;;8.10;94.56
59106;BME280;44891;50.204;8.132;2023-05-14T02:11:35;98388.50;;;8.00;95.20
59106;BME280;44891;50.204;8.132;2023-05-14T02:15:37;98387.03;;;7.86;97.82
59106;BME280;44891;50.204;8.132;2023-05-14T02:19:39;98391.44;;;7.85;98.01
59106;BME280;44891;50.204;8.132;2023-05-14T02:23:41;98385.72;;;7.95;96.79
59106;BME280;44891;50.204;8.132;2023-05-14T02:27:45;98393.91;;;7.99;94.93
59106;BME280;44891;50.204;8.132;2023-05-14T02:31:46;98387.22;;;7.84;94.22
59106;BME280;44891;50.204;8.132;2023-05-14T02:35:49;98377.56;;;7.67;95.18
59106;BME280;44891;50.204;8.132;2023-05-14T02:39:51;98382.59;;;7.86;94.65
59106;BME280;44891;50.204;8.132;2023-05-14T02:43:56;98375.16;;;7.83;95.42
59106;BME280;44891;50.204;8.132;2023-05-14T02:47:59;98365.94;;;7.81;96.08
59106;BME280;44891;50.204;8.132;2023-05-14T02:52:01;98369.91;;;7.65;96.16
59106;BME280;44891;50.204;8.132;2023-05-14T02:56:03;98362.38;;;7.75;96.08
59106;BME280;44891;50.204;8.132;2023-05-14T03:00:07;98364.06;;;7.45;99.39
59106;BME280;44891;50.204;8.132;2023-05-14T03:04:09;98365.19;;;7.30;100.00
59106;BME280;44891;50.204;8.132;2023-05-14T03:08:11;98374.16;;;7.41;97.53
59106;BME280;44891;50.204;8.132;2023-05-14T03:12:13;98369.44;;;7.50;96.31
59106;BME280;44891;50.204;8.132;2023-05-14T03:16:16;98367.00;;;7.30;97.05
59106;BME280;44891;50.204;8.132;2023-05-14T03:20:18;98373.72;;;7.44;95.33
59106;BME280;44891;50.204;8.132;2023-05-14T03:24:20;98359.94;;;7.55;93.85
59106;BME280;44891;50.204;8.132;2023-05-14T03:28:22;98365.31;;;7.11;96.85
59106;BME280;44891;50.204;8.132;2023-05-14T03:32:25;98362.59;;;6.99;100.00
59106;BME280;44891;50.204;8.132;2023-05-14T03:36:27;98357.38;;;7.24;99.28
59106;BME280;44891;50.204;8.132;2023-05-14T03:40:29;98361.56;;;7.06;99.32
59106;BME280;44891;50.204;8.132;2023-05-14T03:44:31;98351.75;;;7.27;97.06
59106;BME280;44891;50.204;8.132;2023-05-14T03:48:34;98354.38;;;7.27;95.51
59106;BME280;44891;50.204;8.132;2023-05-14T03:52:37;98364.66;;;7.22;96.18
59106;BME280;44891;50.204;8.132;2023-05-14T03:56:40;98362.03;;;7.22;97.36
59106;BME280;44891;50.204;8.132;2023-05-14T04:00:42;98360.19;;;6.97;99.33
59106;BME280;44891;50.204;8.132;2023-05-14T04:04:46;98361.38;;;7.01;100.00
59106;BME280;44891;50.204;8.132;2023-05-14T04:08:51;98376.25;;;7.26;100.00
59106;BME280;44891;50.204;8.132;2023-05-14T04:12:53;98362.56;;;7.55;99.58
59106;BME280;44891;50.204;8.132;2023-05-14T04:16:57;98365.00;;;7.75;98.59
59106;BME280;44891;50.204;8.132;2023-05-14T04:21:00;98360.13;;;7.79;96.22
59106;BME280;44891;50.204;8.132;2023-05-14T04:25:02;98359.06;;;7.86;94.55
59106;BME280;44891;50.204;8.132;2023-05-14T04:29:04;98361.16;;;7.96;94.91
59106;BME280;44891;50.204;8.132;2023-05-14T04:33:06;98366.38;;;7.96;96.12
59106;BME280;44891;50.204;8.132;2023-05-14T04:37:09;98362.47;;;7.87;98.59
59106;BME280;44891;50.204;8.132;2023-05-14T04:41:11;98364.00;;;8.13;98.34
59106;BME280;44891;50.204;8.132;2023-05-14T04:45:13;98368.41;;;8.31;98.21
59106;BME280;44891;50.204;8.132;2023-05-14T04:49:14;98368.28;;;8.44;98.62
59106;BME280;44891;50.204;8.132;2023-05-14T04:53:18;98368.91;;;8.58;96.60
59106;BME280;44891;50.204;8.132;2023-05-14T04:57:19;98379.91;;;8.66;96.24
59106;BME280;44891;50.204;8.132;2023-05-14T05:01:21;98380.53;;;8.80;96.82
59106;BME280;44891;50.204;8.132;2023-05-14T05:05:23;98384.66;;;8.88;96.56
59106;BME280;44891;50.204;8.132;2023-05-14T05:09:26;98338.81;;;8.67;96.35
59106;BME280;44891;50.204;8.132;2023-05-14T05:13:28;98376.69;;;9.24;95.27
59106;BME280;44891;50.204;8.132;2023-05-14T05:17:31;98376.78;;;9.41;94.83
59106;BME280;44891;50.204;8.132;2023-05-14T05:21:33;98366.31;;;9.41;94.99
59106;BME280;44891;50.204;8.132;2023-05-14T05:25:37;98369.63;;;9.48;95.13
59106;BME280;44891;50.204;8.132;2023-05-14T05:29:38;98365.88;;;9.56;95.57
59106;BME280;44891;50.204;8.132;2023-05-14T05:33:40;98372.38;;;9.53;96.66
59106;BME280;44891;50.204;8.132;2023-05-14T05:37:42;98373.19;;;9.66;97.14
59106;BME280;44891;50.204;8.132;2023-05-14T05:41:46;98372.84;;;9.97;95.97
59106;BME280;44891;50.204;8.132;2023-05-14T05:45:47;98380.41;;;10.22;94.43
59106;BME280;44891;50.204;8.132;2023-05-14T05:49:49;98382.38;;;10.39;95.24
59106;BME280;44891;50.204;8.132;2023-05-14T05:53:51;98377.53;;;10.47;97.04
59106;BME280;44891;50.204;8.132;2023-05-14T05:57:54;98381.19;;;10.46;97.77
59106;BME280;44891;50.204;8.132;2023-05-14T06:01:56;98385.28;;;10.54;99.04
59106;BME280;44891;50.204;8.132;2023-05-14T06:05:58;98386.00;;;10.78;98.52
59106;BME280;44891;50.204;8.132;2023-05-14T06:10:00;98382.75;;;11.16;96.57
59106;BME280;44891;50.204;8.132;2023-05-14T06:14:03;98381.28;;;11.42;95.72
59106;BME280;44891;50.204;8.132;2023-05-14T06:18:05;98382.91;;;11.60;94.72
59106;BME280;44891;50.204;8.132;2023-05-14T06:22:07;98395.59;;;11.63;95.37
59106;BME280;44891;50.204;8.132;2023-05-14T06:26:08;98394.75;;;11.79;95.20
59106;BME280;44891;50.204;8.132;2023-05-14T06:30:12;98379.16;;;11.89;93.75
59106;BME280;44891;50.204;8.132;2023-05-14T06:34:14;98382.97;;;11.98;93.98
59106;BME280;44891;50.204;8.132;2023-05-14T06:38:16;98388.50;;;12.19;92.85
59106;BME280;44891;50.204;8.132;2023-05-14T06:42:18;98384.78;;;12.37;93.02
59106;BME280;44891;50.204;8.132;2023-05-14T06:46:22;98380.97;;;12.49;91.75
59106;BME280;44891;50.204;8.132;2023-05-14T06:50:24;98382.13;;;12.59;91.09
59106;BME280;44891;50.204;8.132;2023-05-14T06:54:26;98379.97;;;12.77;90.41
59106;BME280;44891;50.204;8.132;2023-05-14T06:58:28;98375.59;;;12.88;90.24
59106;BME280;44891;50.204;8.132;2023-05-14T07:02:31;98378.78;;;12.90;89.81
59106;BME280;44891;50.204;8.132;2023-05-14T07:06:33;98371.47;;;12.97;89.73
59106;BME280;44891;50.204;8.132;2023-05-14T07:10:35;98365.72;;;13.05;89.03
59106;BME280;44891;50.204;8.132;2023-05-14T07:14:37;98361.88;;;13.18;88.65
59106;BME280;44891;50.204;8.132;2023-05-14T07:18:40;98370.19;;;13.32;89.34
59106;BME280;44891;50.204;8.132;2023-05-14T07:22:42;98372.16;;;13.47;88.92
59106;BME280;44891;50.204;8.132;2023-05-14T07:26:43;98368.59;;;13.63;87.83
59106;BME280;44891;50.204;8.132;2023-05-14T07:30:45;98367.97;;;13.88;85.11
59106;BME280;44891;50.204;8.132;2023-05-14T07:34:48;98366.75;;;14.11;84.51
59106;BME280;44891;50.204;8.132;2023-05-14T07:38:50;98344.16;;;13.83;84.78
59106;BME280;44891;50.204;8.132;2023-05-14T07:42:52;98370.66;;;13.98;84.52
59106;BME280;44891;50.204;8.132;2023-05-14T07:46:54;98367.53;;;14.11;83.52
59106;BME280;44891;50.204;8.132;2023-05-14T07:50:57;98358.44;;;14.45;82.98
59106;BME280;44891;50.204;8.132;2023-05-14T07:54:59;98355.66;;;14.77;80.28
59106;BME280;44891;50.204;8.132;2023-05-14T07:59:01;98350.13;;;14.99;79.55
59106;BME280;44891;50.204;8.132;2023-05-14T08:03:03;98346.69;;;15.03;80.21
59106;BME280;44891;50.204;8.132;2023-05-14T08:07:06;98347.75;;;15.02;80.11
59106;BME280;44891;50.204;8.132;2023-05-14T08:11:08;98351.72;;;14.89;80.83
59106;BME280;44891;50.204;8.132;2023-05-14T08:15:10;98348.03;;;15.01;79.52
59106;BME280;44891;50.204;8.132;2023-05-14T08:19:12;98346.69;;;15.03;78.88
59106;BME280;44891;50.204;8.132;2023-05-14T08:23:15;98334.25;;;14.99;77.97
59106;BME280;44891;50.204;8.132;2023-05-14T08:27:17;98334.00;;;15.05;78.30
59106;BME280;44891;50.204;8.132;2023-05-14T08:31:19;98328.72;;;15.15;77.06
59106;BME280;44891;50.204;8.132;2023-05-14T08:35:21;98328.47;;;15.22;77.61
59106;BME280;44891;50.204;8.132;2023-05-14T08:39:24;98329.25;;;15.07;77.09
59106;BME280;44891;50.204;8.132;2023-05-14T08:47:43;98324.19;;;15.57;73.42
59106;BME280;44891;50.204;8.132;2023-05-14T08:51:47;98315.97;;;15.79;71.66
59106;BME280;44891;50.204;8.132;2023-05-14T08:55:51;98308.53;;;15.86;72.07
59106;BME280;44891;50.204;8.132;2023-05-14T08:59:54;98314.41;;;15.67;71.90
59106;BME280;44891;50.204;8.132;2023-05-14T09:03:56;98307.50;;;15.56;72.60
59106;BME280;44891;50.204;8.132;2023-05-14T09:07:58;98293.75;;;15.74;71.86
59106;BME280;44891;50.204;8.132;2023-05-14T09:12:01;98288.06;;;16.01;71.57
59106;BME280;44891;50.204;8.132;2023-05-14T09:16:03;98289.38;;;16.04;67.99
59106;BME280;44891;50.204;8.132;2023-05-14T09:20:06;98287.72;;;16.23;68.54
59106;BME280;44891;50.204;8.132;2023-05-14T09:24:08;98286.84;;;16.38;67.49
59106;BME280;44891;50.204;8.132;2023-05-14T09:28:11;98276.56;;;16.31;64.80
59106;BME280;44891;50.204;8.132;2023-05-14T09:32:13;98274.78;;;16.61;65.66
59106;BME280;44891;50.204;8.132;2023-05-14T09:36:15;98272.09;;;16.66;64.19
59106;BME280;44891;50.204;8.132;2023-05-14T09:40:17;98268.81;;;16.84;64.65
59106;BME280;44891;50.204;8.132;2023-05-14T09:44:21;98261.94;;;17.12;64.29
59106;BME280;44891;50.204;8.132;2023-05-14T09:48:23;98270.69;;;17.71;60.23
59106;BME280;44891;50.204;8.132;2023-05-14T09:52:25;98265.69;;;17.64;59.10
59106;BME280;44891;50.204;8.132;2023-05-14T09:56:27;98267.34;;;17.55;59.96
59106;BME280;44891;50.204;8.132;2023-05-14T10:00:31;98266.31;;;17.80;59.03
59106;BME280;44891;50.204;8.132;2023-05-14T10:04:33;98261.84;;;17.52;60.12
59106;BME280;44891;50.204;8.132;2023-05-14T10:08:36;98270.16;;;17.93;59.83
59106;BME280;44891;50.204;8.132;2023-05-14T10:12:41;98261.97;;;17.89;59.55
59106;BME280;44891;50.204;8.132;2023-05-14T10:16:48;98261.44;;;18.11;59.31
59106;BME280;44891;50.204;8.132;2023-05-14T10:20:52;98267.91;;;17.81;61.44
59106;BME280;44891;50.204;8.132;2023-05-14T10:24:57;98257.63;;;17.46;62.35
59106;BME280;44891;50.204;8.132;2023-05-14T10:29:00;98261.47;;;17.34;62.52
59106;BME280;44891;50.204;8.132;2023-05-14T10:33:07;98257.19;;;17.62;62.70
59106;BME280;44891;50.204;8.132;2023-05-14T10:37:09;98252.25;;;18.23;62.31
59106;BME280;44891;50.204;8.132;2023-05-14T10:41:12;98253.50;;;18.82;55.43
59106;BME280;44891;50.204;8.132;2023-05-14T10:45:17;98250.66;;;18.59;56.87
59106;BME280;44891;50.204;8.132;2023-05-14T10:49:20;98252.94;;;18.28;58.79
59106;BME280;44891;50.204;8.132;2023-05-14T10:53:29;98247.13;;;18.45;56.55
59106;BME280;44891;50.204;8.132;2023-05-14T10:57:31;98250.22;;;18.52;57.04
59106;BME280;44891;50.204;8.132;2023-05-14T11:01:33;98242.47;;;18.56;54.81
59106;BME280;44891;50.204;8.132;2023-05-14T11:05:36;98239.50;;;18.57;55.03
59106;BME280;44891;50.204;8.132;2023-05-14T11:09:39;98240.69;;;19.02;52.43
59106;BME280;44891;50.204;8.132;2023-05-14T11:13:41;98234.84;;;19.00;53.00
59106;BME280;44891;50.204;8.132;2023-05-14T11:17:44;98224.59;;;19.08;52.90
59106;BME280;44891;50.204;8.132;2023-05-14T11:21:48;98222.78;;;19.36;52.37
59106;BME280;44891;50.204;8.132;2023-05-14T11:25:50;98213.09;;;19.12;52.61
59106;BME280;44891;50.204;8.132;2023-05-14T11:29:52;98220.19;;;18.52;52.73
59106;BME280;44891;50.204;8.132;2023-05-14T11:33:55;98223.06;;;18.17;55.29
59106;BME280;44891;50.204;8.132;2023-05-14T11:37:58;98217.53;;;18.33;55.68
59106;BME280;44891;50.204;8.132;2023-05-14T11:42:01;98212.97;;;18.90;54.70
59106;BME280;44891;50.204;8.132;2023-05-14T11:46:03;98206.34;;;19.01;53.07
59106;BME280;44891;50.204;8.132;2023-05-14T11:50:05;98212.06;;;18.94;51.50
59106;BME280;44891;50.204;8.132;2023-05-14T11:54:08;98207.34;;;19.05;51.18
59106;BME280;44891;50.204;8.132;2023-05-14T11:58:10;98195.25;;;19.40;50.62
59106;BME280;44891;50.204;8.132;2023-05-14T12:02:13;98195.66;;;19.47;50.53
59106;BME280;44891;50.204;8.132;2023-05-14T12:06:15;98192.50;;;19.18;50.49
59106;BME280;44891;50.204;8.132;2023-05-14T12:10:20;98186.59;;;19.35;50.81
59106;BME280;44891;50.204;8.132;2023-05-14T12:14:22;98192.41;;;19.37;50.48
59106;BME280;44891;50.204;8.132;2023-05-14T12:18:24;98179.38;;;19.76;50.26
59106;BME280;44891;50.204;8.132;2023-05-14T12:22:28;98145.47;;;20.04;49.51
59106;BME280;44891;50.204;8.132;2023-05-14T12:26:32;98173.78;;;20.36;47.90
59106;BME280;44891;50.204;8.132;2023-05-14T12:30:36;98166.81;;;20.27;48.37
59106;BME280;44891;50.204;8.132;2023-05-14T12:34:37;98154.19;;;19.96;49.74
59106;BME280;44891;50.204;8.132;2023-05-14T12:38:39;98151.69;;;19.64;50.22
59106;BME280;44891;50.204;8.132;2023-05-14T12:42:42;98144.38;;;20.05;48.25
59106;BME280;44891;50.204;8.132;2023-05-14T12:46:44;98142.78;;;20.94;47.59
59106;BME280;44891;50.204;8.132;2023-05-14T12:50:46;98131.22;;;21.64;46.44
59106;BME280;44891;50.204;8.132;2023-05-14T12:54:48;98133.47;;;21.88;45.45
59106;BME280;44891;50.204;8.132;2023-05-14T12:58:52;98127.31;;;21.88;44.22
59106;BME280;44891;50.204;8.132;2023-05-14T13:02:53;98124.63;;;21.53;44.92
59106;BME280;44891;50.204;8.132;2023-05-14T13:06:55;98115.13;;;20.90;46.27
59106;BME280;44891;50.204;8.132;2023-05-14T13:10:57;98114.34;;;21.29;46.42
59106;BME280;44891;50.204;8.132;2023-05-14T13:15:00;98104.50;;;21.07;45.41
59106;BME280;44891;50.204;8.132;2023-05-14T13:19:02;98092.94;;;21.21;46.69
59106;BME280;44891;50.204;8.132;2023-05-14T13:23:04;98097.63;;;21.24;47.44
59106;BME280;44891;50.204;8.132;2023-05-14T13:27:06;98103.00;;;20.92;47.21
59106;BME280;44891;50.204;8.132;2023-05-14T13:31:09;98096.31;;;20.64;48.77
59106;BME280;44891;50.204;8.132;2023-05-14T13:35:12;98089.31;;;20.77;48.73
59106;BME280;44891;50.204;8.132;2023-05-14T13:39:14;98084.19;;;20.89;47.95
59106;BME280;44891;50.204;8.132;2023-05-14T13:43:16;98077.78;;;21.56;48.29
59106;BME280;44891;50.204;8.132;2023-05-14T13:47:19;98075.91;;;22.17;46.14
59106;BME280;44891;50.204;8.132;2023-05-14T13:51:21;98070.06;;;22.06;44.88
59106;BME280;44891;50.204;8.132;2023-05-14T13:55:23;98064.56;;;22.20;43.93
59106;BME280;44891;50.204;8.132;2023-05-14T13:59:24;98069.59;;;22.04;43.77
59106;BME280;44891;50.204;8.132;2023-05-14T14:03:28;98059.69;;;21.87;43.59
59106;BME280;44891;50.204;8.132;2023-05-14T14:07:30;98065.81;;;21.96;43.54
59106;BME280;44891;50.204;8.132;2023-05-14T14:11:32;98048.53;;;22.20;42.67
59106;BME280;44891;50.204;8.132;2023-05-14T14:15:34;98041.94;;;22.09;42.54
59106;BME280;44891;50.204;8.132;2023-05-14T14:19:37;98041.06;;;22.43;43.44
59106;BME280;44891;50.204;8.132;2023-05-14T14:23:39;98035.16;;;22.67;43.41
59106;BME280;44891;50.204;8.132;2023-05-14T14:27:41;98026.97;;;22.63;43.33
59106;BME280;44891;50.204;8.132;2023-05-14T14:31:43;98034.28;;;22.84;42.53
59106;BME280;44891;50.204;8.132;2023-05-14T14:35:46;98022.63;;;23.18;40.49
59106;BME280;44891;50.204;8.132;2023-05-14T14:39:47;98018.69;;;23.15;39.82
59106;BME280;44891;50.204;8.132;2023-05-14T14:43:49;98021.88;;;23.09;41.11
59106;BME280;44891;50.204;8.132;2023-05-14T14:47:52;98019.91;;;23.47;40.93
59106;BME280;44891;50.204;8.132;2023-05-14T14:52:14;98030.03;;;22.91;42.42
59106;BME280;44891;50.204;8.132;2023-05-14T14:56:16;98044.75;;;21.34;45.16
59106;BME280;44891;50.204;8.132;2023-05-14T15:00:18;98039.19;;;19.89;50.98
59106;BME280;44891;50.204;8.132;2023-05-14T15:04:20;98035.22;;;19.28;58.40
59106;BME280;44891;50.204;8.132;2023-05-14T15:08:25;98034.44;;;19.00;59.85
59106;BME280;44891;50.204;8.132;2023-05-14T15:12:27;98030.63;;;18.18;61.65
59106;BME280;44891;50.204;8.132;2023-05-14T15:16:29;98028.06;;;17.94;62.16
59106;BME280;44891;50.204;8.132;2023-05-14T15:20:30;98026.25;;;18.09;60.97
59106;BME280;44891;50.204;8.132;2023-05-14T15:24:34;97979.00;;;18.06;59.13
59106;BME280;44891;50.204;8.132;2023-05-14T15:28:35;98025.41;;;18.27;58.63
59106;BME280;44891;50.204;8.132;2023-05-14T15:32:37;98022.78;;;18.55;56.72
59106;BME280;44891;50.204;8.132;2023-05-14T15:36:39;98025.19;;;18.70;54.12
59106;BME280;44891;50.204;8.132;2023-05-14T15:40:42;98030.53;;;18.84;55.99
59106;BME280;44891;50.204;8.132;2023-05-14T15:44:44;98037.66;;;19.38;57.83
59106;BME280;44891;50.204;8.132;2023-05-14T15:48:46;98019.56;;;19.63;55.44
59106;BME280;44891;50.204;8.132;2023-05-14T15:52:48;98023.44;;;19.79;54.98
59106;BME280;44891;50.204;8.132;2023-05-14T15:56:51;98018.94;;;19.66;54.30
59106;BME280;44891;50.204;8.132;2023-05-14T16:00:53;98013.09;;;19.41;51.97
59106;BME280;44891;50.204;8.132;2023-05-14T16:04:55;98014.94;;;19.05;53.08
59106;BME280;44891;50.204;8.132;2023-05-14T16:08:57;98013.84;;;18.92;53.65
59106;BME280;44891;50.204;8.132;2023-05-14T16:13:01;97999.75;;;18.64;53.45
59106;BME280;44891;50.204;8.132;2023-05-14T16:17:03;98012.38;;;18.86;54.26
59106;BME280;44891;50.204;8.132;2023-05-14T16:21:05;98008.44;;;18.97;54.56
59106;BME280;44891;50.204;8.132;2023-05-14T16:25:07;98006.47;;;18.75;53.82
59106;BME280;44891;50.204;8.132;2023-05-14T16:29:10;98010.41;;;18.64;54.87
59106;BME280;44891;50.204;8.132;2023-05-14T16:33:12;98019.53;;;18.58;55.12
59106;BME280;44891;50.204;8.132;2023-05-14T16:37:13;98015.88;;;18.40;55.76
59106;BME280;44891;50.204;8.132;2023-05-14T16:41:15;98019.03;;;18.42;57.02
59106;BME280;44891;50.204;8.132;2023-05-14T16:45:19;98019.19;;;18.18;58.99
59106;BME280;44891;50.204;8.132;2023-05-14T16:49:20;98020.84;;;18.14;60.28
59106;BME280;44891;50.204;8.132;2023-05-14T16:53:22;98026.25;;;18.09;60.74
59106;BME280;44891;50.204;8.132;2023-05-14T16:57:24;98021.84;;;17.85;61.15
59106;BME280;44891;50.204;8.132;2023-05-14T17:01:27;98024.69;;;17.89;60.50
59106;BME280;44891;50.204;8.132;2023-05-14T17:05:29;98017.84;;;18.02;60.08
59106;BME280;44891;50.204;8.132;2023-05-14T17:09:31;98022.00;;;18.08;59.89
59106;BME280;44891;50.204;8.132;2023-05-14T17:13:33;98023.28;;;17.97;59.75
59106;BME280;44891;50.204;8.132;2023-05-14T17:17:36;98034.72;;;17.78;61.45
59106;BME280;44891;50.204;8.132;2023-05-14T17:21:38;98029.97;;;17.75;61.88
59106;BME280;44891;50.204;8.132;2023-05-14T17:25:40;98031.28;;;17.78;61.94
59106;BME280;44891;50.204;8.132;2023-05-14T17:29:42;98027.72;;;17.82;61.69
59106;BME280;44891;50.204;8.132;2023-05-14T17:33:45;98028.97;;;17.90;60.81
59106;BME280;44891;50.204;8.132;2023-05-14T17:37:47;98030.97;;;17.79;61.81
59106;BME280;44891;50.204;8.132;2023-05-14T17:41:49;98025.00;;;17.68;61.55
59106;BME280;44891;50.204;8.132;2023-05-14T17:45:50;98026.94;;;17.44;62.50
59106;BME280;44891;50.204;8.132;2023-05-14T17:49:53;98028.44;;;17.31;63.43
59106;BME280;44891;50.204;8.132;2023-05-14T17:53:55;98035.16;;;17.05;64.09
59106;BME280;44891;50.204;8.132;2023-05-14T17:57:57;98038.41;;;16.97;63.71
59106;BME280;44891;50.204;8.132;2023-05-14T18:01:59;98033.47;;;16.90;64.55
59106;BME280;44891;50.204;8.132;2023-05-14T18:06:02;98035.22;;;16.76;65.38
59106;BME280;44891;50.204;8.132;2023-05-14T18:10:05;98036.38;;;16.65;66.62
59106;BME280;44891;50.204;8.132;2023-05-14T18:14:07;98044.53;;;16.44;67.74
59106;BME280;44891;50.204;8.132;2023-05-14T18:18:08;98042.31;;;16.27;68.38
59106;BME280;44891;50.204;8.132;2023-05-14T18:22:12;98046.63;;;16.18;68.11
59106;BME280;44891;50.204;8.132;2023-05-14T18:26:14;98055.13;;;16.15;67.94
59106;BME280;44891;50.204;8.132;2023-05-14T18:30:16;98061.00;;;16.12;68.29
59106;BME280;44891;50.204;8.132;2023-05-14T18:34:18;98061.31;;;16.06;68.60
59106;BME280;44891;50.204;8.132;2023-05-14T18:38:21;98064.03;;;15.95;69.80
59106;BME280;44891;50.204;8.132;2023-05-14T18:42:23;98070.69;;;15.88;71.15
59106;BME280;44891;50.204;8.132;2023-05-14T18:46:25;98067.81;;;15.84;72.26
59106;BME280;44891;50.204;8.132;2023-05-14T18:50:27;98072.78;;;15.91;71.44
59106;BME280;44891;50.204;8.132;2023-05-14T18:54:30;98072.41;;;15.68;72.17
59106;BME280;44891;50.204;8.132;2023-05-14T18:58:32;98085.16;;;15.66;72.92
59106;BME280;44891;50.204;8.132;2023-05-14T19:02:34;98082.31;;;15.47;74.87
59106;BME280;44891;50.204;8.132;2023-05-14T19:06:35;98084.97;;;15.37;76.37
59106;BME280;44891;50.204;8.132;2023-05-14T19:10:41;98083.44;;;15.31;75.95
59106;BME280;44891;50.204;8.132;2023-05-14T19:14:42;98085.06;;;15.17;77.15
59106;BME280;44891;50.204;8.132;2023-05-14T19:18:44;98088.84;;;15.01;76.85
59106;BME280;44891;50.204;8.132;2023-05-14T19:22:46;98092.53;;;15.05;75.86
59106;BME280;44891;50.204;8.132;2023-05-14T19:26:49;98092.63;;;14.79;77.20
59106;BME280;44891;50.204;8.132;2023-05-14T19:30:51;98097.63;;;14.86;75.53
59106;BME280;44891;50.204;8.132;2023-05-14T19:34:53;98095.00;;;14.71;76.13
59106;BME280;44891;50.204;8.132;2023-05-14T19:38:55;98087.34;;;14.69;77.33
59106;BME280;44891;50.204;8.132;2023-05-14T19:42:58;98090.78;;;14.64;78.00
59106;BME280;44891;50.204;8.132;2023-05-14T19:47:00;98097.66;;;14.50;78.28
59106;BME280;44891;50.204;8.132;2023-05-14T19:51:02;98089.72;;;14.30;79.33
59106;BME280;44891;50.204;8.132;2023-05-14T19:55:04;98097.13;;;14.23;81.04
59106;BME280;44891;50.204;8.132;2023-05-14T19:59:07;98096.84;;;14.04;82.52
59106;BME280;44891;50.204;8.132;2023-05-14T20:03:09;98101.81;;;13.70;83.31
59106;BME280;44891;50.204;8.132;2023-05-14T20:07:11;98102.25;;;13.36;85.36
59106;BME280;44891;50.204;8.132;2023-05-14T20:11:14;98100.66;;;13.35;86.08
59106;BME280;44891;50.204;8.132;2023-05-14T20:15:20;98088.53;;;13.34;85.47
59106;BME280;44891;50.204;8.132;2023-05-14T20:19:22;98094.59;;;13.35;85.10
59106;BME280;44891;50.204;8.132;2023-05-14T20:23:23;98087.19;;;13.31;85.81
59106;BME280;44891;50.204;8.132;2023-05-14T20:27:25;98089.06;;;13.46;85.62
59106;BME280;44891;50.204;8.132;2023-05-14T20:31:28;98087.91;;;13.17;86.85
59106;BME280;44891;50.204;8.132;2023-05-14T20:35:30;98083.75;;;13.31;86.67
59106;BME280;44891;50.204;8.132;2023-05-14T20:39:32;98083.25;;;13.39;86.01
59106;BME280;44891;50.204;8.132;2023-05-14T20:43:34;98079.56;;;13.40;86.24
59106;BME280;44891;50.204;8.132;2023-05-14T20:47:37;98071.41;;;13.47;86.03
59106;BME280;44891;50.204;8.132;2023-05-14T20:51:39;98073.50;;;13.35;87.22
59106;BME280;44891;50.204;8.132;2023-05-14T20:55:41;98063.47;;;13.37;86.76
59106;BME280;44891;50.204;8.132;2023-05-14T20:59:44;98067.91;;;13.26;88.12
59106;BME280;44891;50.204;8.132;2023-05-14T21:03:47;98060.22;;;13.19;88.29
59106;BME280;44891;50.204;8.132;2023-05-14T21:07:49;98058.94;;;13.22;87.60
59106;BME280;44891;50.204;8.132;2023-05-14T21:11:51;98046.81;;;13.21;88.03
59106;BME280;44891;50.204;8.132;2023-05-14T21:15:52;98049.13;;;13.17;87.96
59106;BME280;44891;50.204;8.132;2023-05-14T21:19:55;98052.28;;;13.09;88.59
59106;BME280;44891;50.204;8.132;2023-05-14T21:23:57;98052.81;;;13.11;88.73
59106;BME280;44891;50.204;8.132;2023-05-14T21:27:59;98055.53;;;13.21;88.20
59106;BME280;44891;50.204;8.132;2023-05-14T21:32:01;98046.22;;;13.14;88.09